createdAt,value
2016-12-01T00:00:21.245Z,17.3
2016-12-01T00:00:48.953Z,17.31
2016-12-01T00:01:16.664Z,17.34
2016-12-01T00:01:44.348Z,17.32
2016-12-01T00:02:12.055Z,17.34
2016-12-01T00:02:39.766Z,17.32
2016-12-01T00:03:07.491Z,17.35
2016-12-01T00:03:35.202Z,17.31
2016-12-01T00:04:02.885Z,17.34
2016-12-01T00:04:30.564Z,17.32
2016-12-01T00:04:58.263Z,17.3
2016-12-01T00:05:26.035Z,17.32
2016-12-01T00:05:53.734Z,17.35
2016-12-01T00:06:21.396Z,17.34
2016-12-01T00:06:49.059Z,17.34
2016-12-01T00:07:16.840Z,17.37
2016-12-01T00:07:44.541Z,17.37
2016-12-01T00:08:12.230Z,17.35
2016-12-01T00:08:39.980Z,17.37
2016-12-01T00:09:07.862Z,17.32
2016-12-01T00:09:35.530Z,17.37
2016-12-01T00:10:03.245Z,17.37
2016-12-01T00:10:31.037Z,17.39
2016-12-01T00:10:58.771Z,17.38
2016-12-01T00:11:26.453Z,17.37
2016-12-01T00:11:54.114Z,17.41
2016-12-01T00:12:21.793Z,17.37
2016-12-01T00:12:49.459Z,17.41
2016-12-01T00:13:17.163Z,17.34
2016-12-01T00:13:44.938Z,17.38
2016-12-01T00:14:12.648Z,17.39
2016-12-01T00:14:40.347Z,17.34
2016-12-01T00:15:08.049Z,17.41
2016-12-01T00:15:35.744Z,17.38
2016-12-01T00:16:03.529Z,17.38
2016-12-01T00:16:31.246Z,17.39
2016-12-01T00:16:58.935Z,17.38
2016-12-01T00:17:26.825Z,17.38
2016-12-01T00:17:54.622Z,17.37
2016-12-01T00:18:22.350Z,17.38
2016-12-01T00:18:50.120Z,17.34
2016-12-01T00:19:17.792Z,17.35
2016-12-01T00:19:45.514Z,17.37
2016-12-01T00:20:13.196Z,17.34
2016-12-01T00:20:40.894Z,17.37
2016-12-01T00:21:08.589Z,17.34
2016-12-01T00:21:36.301Z,17.37
2016-12-01T00:22:03.984Z,17.39
2016-12-01T00:22:31.728Z,17.34
2016-12-01T00:22:59.413Z,17.37
2016-12-01T00:23:27.119Z,17.32
2016-12-01T00:23:54.809Z,17.31
2016-12-01T00:24:22.628Z,17.32
2016-12-01T00:24:50.314Z,17.39
2016-12-01T00:25:18.043Z,17.35
2016-12-01T00:25:45.763Z,17.34
2016-12-01T00:26:13.487Z,17.3
2016-12-01T00:26:41.174Z,17.31
2016-12-01T00:27:08.854Z,17.31
2016-12-01T00:27:36.517Z,17.34
2016-12-01T00:28:04.219Z,17.32
2016-12-01T00:28:32.001Z,17.32
2016-12-01T00:28:59.679Z,17.35
2016-12-01T00:29:27.381Z,17.27
2016-12-01T00:29:55.040Z,17.27
2016-12-01T00:30:22.841Z,17.27
2016-12-01T00:30:50.542Z,17.24
2016-12-01T00:31:18.226Z,17.24
2016-12-01T00:31:45.918Z,17.24
2016-12-01T00:32:13.710Z,17.32
2016-12-01T00:32:41.506Z,17.22
2016-12-01T00:33:09.322Z,17.23
2016-12-01T00:33:36.999Z,17.3
2016-12-01T00:34:04.699Z,17.34
2016-12-01T00:34:32.487Z,17.32
2016-12-01T00:35:00.164Z,17.34
2016-12-01T00:35:27.851Z,17.28
2016-12-01T00:35:55.539Z,17.24
2016-12-01T00:36:23.207Z,17.27
2016-12-01T00:36:50.991Z,17.31
2016-12-01T00:37:18.687Z,17.27
2016-12-01T00:37:46.374Z,17.27
2016-12-01T00:38:14.085Z,17.27
2016-12-01T00:38:41.770Z,17.3
2016-12-01T00:39:09.466Z,17.3
2016-12-01T00:39:37.150Z,17.37
2016-12-01T00:40:04.849Z,17.32
2016-12-01T00:40:32.574Z,17.32
2016-12-01T00:41:00.294Z,17.32
2016-12-01T00:41:27.998Z,17.27
2016-12-01T00:41:55.672Z,17.3
2016-12-01T00:42:23.536Z,17.27
2016-12-01T00:42:51.213Z,17.23
2016-12-01T00:43:18.878Z,17.27
2016-12-01T00:43:46.601Z,17.27
2016-12-01T00:44:14.394Z,17.28
2016-12-01T00:44:42.105Z,17.23
2016-12-01T00:45:09.795Z,17.22
2016-12-01T00:45:37.478Z,17.17
2016-12-01T00:46:05.163Z,17.17
2016-12-01T00:46:32.838Z,17.23
2016-12-01T00:47:00.552Z,17.17
2016-12-01T00:47:28.322Z,17.14
2016-12-01T00:47:56.040Z,17.2
2016-12-01T00:48:23.721Z,17.13
2016-12-01T00:48:51.520Z,17.14
2016-12-01T00:49:19.215Z,17.1
2016-12-01T00:49:46.882Z,17.16
2016-12-01T00:50:14.589Z,17.17
2016-12-01T00:50:42.263Z,17.2
2016-12-01T00:51:09.965Z,17.12
2016-12-01T00:51:37.678Z,17.17
2016-12-01T00:52:05.363Z,17.17
2016-12-01T00:52:33.020Z,17.12
2016-12-01T00:53:00.737Z,17.17
2016-12-01T00:53:28.518Z,17.12
2016-12-01T00:53:56.294Z,17.16
2016-12-01T00:54:24.012Z,17.2
2016-12-01T00:54:51.800Z,17.16
2016-12-01T00:55:19.492Z,17.16
2016-12-01T00:55:47.171Z,17.1
2016-12-01T00:56:14.887Z,17.1
2016-12-01T00:56:42.613Z,17.16
2016-12-01T00:57:10.308Z,17.01
2016-12-01T00:57:37.990Z,16.99
2016-12-01T00:58:05.780Z,17.1
2016-12-01T00:58:33.455Z,16.99
2016-12-01T00:59:01.145Z,17.04
2016-12-01T00:59:28.802Z,17.07
2016-12-01T00:59:56.606Z,17.09
2016-12-01T01:00:24.308Z,17.05
2016-12-01T01:00:51.993Z,17.02
2016-12-01T01:01:19.671Z,17.05
2016-12-01T01:01:47.477Z,17.07
2016-12-01T01:02:15.152Z,17.05
2016-12-01T01:02:42.855Z,17.16
2016-12-01T01:03:10.560Z,17.07
2016-12-01T01:03:38.263Z,17.17
2016-12-01T01:04:05.978Z,17.14
2016-12-01T01:04:33.684Z,17.14
2016-12-01T01:05:01.410Z,17.12
2016-12-01T01:05:29.100Z,17.1
2016-12-01T01:05:56.851Z,17.16
2016-12-01T01:06:24.555Z,17.16
2016-12-01T01:06:52.276Z,17.19
2016-12-01T01:07:19.994Z,17.2
2016-12-01T01:07:47.724Z,17.2
2016-12-01T01:08:15.517Z,17.2
2016-12-01T01:08:43.223Z,17.14
2016-12-01T01:09:11.025Z,17.2
2016-12-01T01:09:38.845Z,17.17
2016-12-01T01:10:06.523Z,17.14
2016-12-01T01:10:34.240Z,17.16
2016-12-01T01:11:02.026Z,17.12
2016-12-01T01:11:29.722Z,17.13
2016-12-01T01:11:57.439Z,17.01
2016-12-01T01:12:25.095Z,17.05
2016-12-01T01:12:52.795Z,17.07
2016-12-01T01:13:20.575Z,17.07
2016-12-01T01:13:48.283Z,17.02
2016-12-01T01:14:15.967Z,16.99
2016-12-01T01:14:43.647Z,17.04
2016-12-01T01:15:11.319Z,17.01
2016-12-01T01:15:38.990Z,16.97
2016-12-01T01:16:06.675Z,16.97
2016-12-01T01:16:34.348Z,17.02
2016-12-01T01:17:02.031Z,16.94
2016-12-01T01:17:29.727Z,17.01
2016-12-01T01:17:57.402Z,16.97
2016-12-01T01:18:25.094Z,16.86
2016-12-01T01:18:52.804Z,16.87
2016-12-01T01:19:20.498Z,16.94
2016-12-01T01:19:48.263Z,16.91
2016-12-01T01:20:16.032Z,16.99
2016-12-01T01:20:43.706Z,16.87
2016-12-01T01:21:11.392Z,16.92
2016-12-01T01:21:39.064Z,16.92
2016-12-01T01:22:06.749Z,16.91
2016-12-01T01:22:34.438Z,16.89
2016-12-01T01:23:02.155Z,16.92
2016-12-01T01:23:29.841Z,16.86
2016-12-01T01:23:57.531Z,16.92
2016-12-01T01:24:25.237Z,16.91
2016-12-01T01:24:52.945Z,16.89
2016-12-01T01:25:20.672Z,16.86
2016-12-01T01:25:48.412Z,16.87
2016-12-01T01:26:16.096Z,16.95
2016-12-01T01:26:43.793Z,16.86
2016-12-01T01:27:11.507Z,16.92
2016-12-01T01:27:39.211Z,16.84
2016-12-01T01:28:06.914Z,16.94
2016-12-01T01:28:34.675Z,17.01
2016-12-01T01:29:02.475Z,16.97
2016-12-01T01:29:30.197Z,16.98
2016-12-01T01:29:57.885Z,17.02
2016-12-01T01:30:25.529Z,17.01
2016-12-01T01:30:53.248Z,17.01
2016-12-01T01:31:21.038Z,16.99
2016-12-01T01:31:48.743Z,17.04
2016-12-01T01:32:16.421Z,17.05
2016-12-01T01:32:44.144Z,17.05
2016-12-01T01:33:11.827Z,17.04
2016-12-01T01:33:39.512Z,17.05
2016-12-01T01:34:07.198Z,17.05
2016-12-01T01:34:34.909Z,16.98
2016-12-01T01:35:02.576Z,17.04
2016-12-01T01:35:30.256Z,17.02
2016-12-01T01:35:57.941Z,17.01
2016-12-01T01:36:25.637Z,17.05
2016-12-01T01:36:53.321Z,17.04
2016-12-01T01:37:21.014Z,16.92
2016-12-01T01:37:48.737Z,16.94
2016-12-01T01:38:16.453Z,16.92
2016-12-01T01:38:44.155Z,16.91
2016-12-01T01:39:11.850Z,16.84
2016-12-01T01:39:39.535Z,16.91
2016-12-01T01:40:07.248Z,16.87
2016-12-01T01:40:34.944Z,16.89
2016-12-01T01:41:02.613Z,16.86
2016-12-01T01:41:30.319Z,16.92
2016-12-01T01:41:57.986Z,16.94
2016-12-01T01:42:25.689Z,16.84
2016-12-01T01:42:53.378Z,16.89
2016-12-01T01:43:21.054Z,16.92
2016-12-01T01:43:48.849Z,16.99
2016-12-01T01:44:16.539Z,16.99
2016-12-01T01:44:44.224Z,16.97
2016-12-01T01:45:11.923Z,16.98
2016-12-01T01:45:39.623Z,16.98
2016-12-01T01:46:07.326Z,16.99
2016-12-01T01:46:35.002Z,16.98
2016-12-01T01:47:02.703Z,17.12
2016-12-01T01:47:30.501Z,17.05
2016-12-01T01:47:58.204Z,17.02
2016-12-01T01:48:25.903Z,17.01
2016-12-01T01:48:53.690Z,17.05
2016-12-01T01:49:21.397Z,17.04
2016-12-01T01:49:49.178Z,17.02
2016-12-01T01:50:16.862Z,17.01
2016-12-01T01:50:44.568Z,17.05
2016-12-01T01:51:12.282Z,17.01
2016-12-01T01:51:40.075Z,17.05
2016-12-01T01:52:07.759Z,17.05
2016-12-01T01:52:35.438Z,17.04
2016-12-01T01:53:03.253Z,16.99
2016-12-01T01:53:30.948Z,16.98
2016-12-01T01:53:58.631Z,16.94
2016-12-01T01:54:26.306Z,16.87
2016-12-01T01:54:54.004Z,16.87
2016-12-01T01:55:21.688Z,16.89
2016-12-01T01:55:49.389Z,16.89
2016-12-01T01:56:17.081Z,16.87
2016-12-01T01:56:44.773Z,16.92
2016-12-01T01:57:12.479Z,16.84
2016-12-01T01:57:40.187Z,16.89
2016-12-01T01:58:07.873Z,16.98
2016-12-01T01:58:35.564Z,17.04
2016-12-01T01:59:03.271Z,17.04
2016-12-01T01:59:30.969Z,17.02
2016-12-01T01:59:58.663Z,17.01
2016-12-01T02:00:26.360Z,17.04
2016-12-01T02:00:54.048Z,17.04
2016-12-01T02:01:21.765Z,17.02
2016-12-01T02:01:49.430Z,16.98
2016-12-01T02:02:17.117Z,17.04
2016-12-01T02:02:44.807Z,17.1
2016-12-01T02:03:12.513Z,17.01
2016-12-01T02:03:40.209Z,17.01
2016-12-01T02:04:07.893Z,16.99
2016-12-01T02:04:35.562Z,16.99
2016-12-01T02:05:03.442Z,17.02
2016-12-01T02:05:31.262Z,17.04
2016-12-01T02:05:58.941Z,17.05
2016-12-01T02:06:26.628Z,17.04
2016-12-01T02:06:54.333Z,16.99
2016-12-01T02:07:22.018Z,17.07
2016-12-01T02:07:49.728Z,17.05
2016-12-01T02:08:17.451Z,17.01
2016-12-01T02:08:45.246Z,17.09
2016-12-01T02:09:12.922Z,17.02
2016-12-01T02:09:40.670Z,16.99
2016-12-01T02:10:08.360Z,17.05
2016-12-01T02:10:36.057Z,17.05
2016-12-01T02:11:03.876Z,17.04
2016-12-01T02:11:31.566Z,17.02
2016-12-01T02:11:59.244Z,16.99
2016-12-01T02:12:26.928Z,17.09
2016-12-01T02:12:54.647Z,17.01
2016-12-01T02:13:22.333Z,16.99
2016-12-01T02:13:50.029Z,16.99
2016-12-01T02:14:17.728Z,16.98
2016-12-01T02:14:45.426Z,16.94
2016-12-01T02:15:13.232Z,16.91
2016-12-01T02:15:40.900Z,16.92
2016-12-01T02:16:08.600Z,16.91
2016-12-01T02:16:36.293Z,16.89
2016-12-01T02:17:03.996Z,16.87
2016-12-01T02:17:31.708Z,16.89
2016-12-01T02:17:59.357Z,16.92
2016-12-01T02:18:27.053Z,16.84
2016-12-01T02:18:54.778Z,16.83
2016-12-01T02:19:22.567Z,16.82
2016-12-01T02:19:50.267Z,16.8
2016-12-01T02:20:17.986Z,16.8
2016-12-01T02:20:45.661Z,16.8
2016-12-01T02:21:13.348Z,16.8
2016-12-01T02:21:41.063Z,16.79
2016-12-01T02:22:08.773Z,16.86
2016-12-01T02:22:36.554Z,16.83
2016-12-01T02:23:04.224Z,16.82
2016-12-01T02:23:32.063Z,16.83
2016-12-01T02:24:00.081Z,16.84
2016-12-01T02:24:27.869Z,16.82
2016-12-01T02:24:55.578Z,16.8
2016-12-01T02:25:23.254Z,16.87
2016-12-01T02:25:50.947Z,16.83
2016-12-01T02:26:18.645Z,16.83
2016-12-01T02:26:46.420Z,16.86
2016-12-01T02:27:14.128Z,16.79
2016-12-01T02:27:41.787Z,16.83
2016-12-01T02:28:09.490Z,16.84
2016-12-01T02:28:37.375Z,16.87
2016-12-01T02:29:05.158Z,16.86
2016-12-01T02:29:32.841Z,16.89
2016-12-01T02:30:00.536Z,16.92
2016-12-01T02:30:28.231Z,16.86
2016-12-01T02:30:55.925Z,16.89
2016-12-01T02:31:23.819Z,16.94
2016-12-01T02:31:51.514Z,16.92
2016-12-01T02:32:19.185Z,16.91
2016-12-01T02:32:46.881Z,16.87
2016-12-01T02:33:14.566Z,16.83
2016-12-01T02:33:42.245Z,16.89
2016-12-01T02:34:09.953Z,16.91
2016-12-01T02:34:37.730Z,16.89
2016-12-01T02:35:05.523Z,16.94
2016-12-01T02:35:33.210Z,16.91
2016-12-01T02:36:00.898Z,16.87
2016-12-01T02:36:28.589Z,16.87
2016-12-01T02:36:56.261Z,16.94
2016-12-01T02:37:23.951Z,16.92
2016-12-01T02:37:51.631Z,16.87
2016-12-01T02:38:19.353Z,16.89
2016-12-01T02:38:47.032Z,16.89
2016-12-01T02:39:14.714Z,16.89
2016-12-01T02:39:42.410Z,16.92
2016-12-01T02:40:10.196Z,16.87
2016-12-01T02:40:37.880Z,16.91
2016-12-01T02:41:05.600Z,16.87
2016-12-01T02:41:33.279Z,16.98
2016-12-01T02:42:00.942Z,16.97
2016-12-01T02:42:28.692Z,16.89
2016-12-01T02:42:56.379Z,16.97
2016-12-01T02:43:24.055Z,16.97
2016-12-01T02:43:51.747Z,16.98
2016-12-01T02:44:19.423Z,16.98
2016-12-01T02:44:47.116Z,16.92
2016-12-01T02:45:14.806Z,16.97
2016-12-01T02:45:42.516Z,16.95
2016-12-01T02:46:10.206Z,16.98
2016-12-01T02:46:38.013Z,16.97
2016-12-01T02:47:05.766Z,16.98
2016-12-01T02:47:33.471Z,16.98
2016-12-01T02:48:01.133Z,17.02
2016-12-01T02:48:28.800Z,17.02
2016-12-01T02:48:56.466Z,16.98
2016-12-01T02:49:24.157Z,17.01
2016-12-01T02:49:51.943Z,16.98
2016-12-01T02:50:19.751Z,17.02
2016-12-01T02:50:47.516Z,16.99
2016-12-01T02:51:15.208Z,17.01
2016-12-01T02:51:42.891Z,17.02
2016-12-01T02:52:10.636Z,17.02
2016-12-01T02:52:38.318Z,16.99
2016-12-01T02:53:05.989Z,16.98
2016-12-01T02:53:33.673Z,16.94
2016-12-01T02:54:01.386Z,16.97
2016-12-01T02:54:29.263Z,16.91
2016-12-01T02:54:56.965Z,16.84
2016-12-01T02:55:24.654Z,16.87
2016-12-01T02:55:52.363Z,16.89
2016-12-01T02:56:20.080Z,16.94
2016-12-01T02:56:47.774Z,16.84
2016-12-01T02:57:15.479Z,16.89
2016-12-01T02:57:43.192Z,16.89
2016-12-01T02:58:10.935Z,16.86
2016-12-01T02:58:38.745Z,16.92
2016-12-01T02:59:06.441Z,16.86
2016-12-01T02:59:34.122Z,16.98
2016-12-01T03:00:01.891Z,16.92
2016-12-01T03:00:30.712Z,16.87
2016-12-01T03:00:58.414Z,16.98
2016-12-01T03:01:26.088Z,16.92
2016-12-01T03:01:53.772Z,16.97
2016-12-01T03:02:21.471Z,16.99
2016-12-01T03:02:49.328Z,16.94
2016-12-01T03:03:17.150Z,16.94
2016-12-01T03:03:44.867Z,16.94
2016-12-01T03:04:12.663Z,16.94
2016-12-01T03:04:40.348Z,16.98
2016-12-01T03:05:08.033Z,16.89
2016-12-01T03:05:35.854Z,16.97
2016-12-01T03:06:03.623Z,16.97
2016-12-01T03:06:31.310Z,16.97
2016-12-01T03:06:59.019Z,16.98
2016-12-01T03:07:26.706Z,16.95
2016-12-01T03:07:54.456Z,16.99
2016-12-01T03:08:22.139Z,16.95
2016-12-01T03:08:49.838Z,16.99
2016-12-01T03:09:17.611Z,16.98
2016-12-01T03:09:45.291Z,17.01
2016-12-01T03:10:12.991Z,16.99
2016-12-01T03:10:40.668Z,17.05
2016-12-01T03:11:08.362Z,17.09
2016-12-01T03:11:36.045Z,17.04
2016-12-01T03:12:03.828Z,17.05
2016-12-01T03:12:31.495Z,17.04
2016-12-01T03:12:59.197Z,17.04
2016-12-01T03:13:26.912Z,17.02
2016-12-01T03:13:54.592Z,17.07
2016-12-01T03:14:22.292Z,16.99
2016-12-01T03:14:49.983Z,16.98
2016-12-01T03:15:17.674Z,17.02
2016-12-01T03:15:45.457Z,16.99
2016-12-01T03:16:13.171Z,17.02
2016-12-01T03:16:40.870Z,17.02
2016-12-01T03:17:08.634Z,17.01
2016-12-01T03:17:36.342Z,16.97
2016-12-01T03:18:04.033Z,16.98
2016-12-01T03:18:31.916Z,17.02
2016-12-01T03:18:59.599Z,16.98
2016-12-01T03:19:27.294Z,17.02
2016-12-01T03:19:55.010Z,17.02
2016-12-01T03:20:22.706Z,17.04
2016-12-01T03:20:50.583Z,17.13
2016-12-01T03:21:18.290Z,17.05
2016-12-01T03:21:46.013Z,17.1
2016-12-01T03:22:13.707Z,17.16
2016-12-01T03:22:41.390Z,17.16
2016-12-01T03:23:09.092Z,17.13
2016-12-01T03:23:36.764Z,17.16
2016-12-01T03:24:04.458Z,17.16
2016-12-01T03:24:32.153Z,17.1
2016-12-01T03:24:59.830Z,17.16
2016-12-01T03:25:27.516Z,17.13
2016-12-01T03:25:55.199Z,17.2
2016-12-01T03:26:22.878Z,17.1
2016-12-01T03:26:50.541Z,17.05
2016-12-01T03:27:18.230Z,17.07
2016-12-01T03:27:45.904Z,17.04
2016-12-01T03:28:13.643Z,16.99
2016-12-01T03:28:41.355Z,17.05
2016-12-01T03:29:09.040Z,16.99
2016-12-01T03:29:36.705Z,17.02
2016-12-01T03:30:04.485Z,16.98
2016-12-01T03:30:32.172Z,17.01
2016-12-01T03:30:59.870Z,16.97
2016-12-01T03:31:27.674Z,17.04
2016-12-01T03:31:55.394Z,16.98
2016-12-01T03:32:23.085Z,16.98
2016-12-01T03:32:50.894Z,16.95
2016-12-01T03:33:18.583Z,16.92
2016-12-01T03:33:46.286Z,17.01
2016-12-01T03:34:14.012Z,16.92
2016-12-01T03:34:41.687Z,16.95
2016-12-01T03:35:09.417Z,16.98
2016-12-01T03:35:37.124Z,16.97
2016-12-01T03:36:04.927Z,16.99
2016-12-01T03:36:32.574Z,16.92
2016-12-01T03:37:00.260Z,16.99
2016-12-01T03:37:27.935Z,16.97
2016-12-01T03:37:55.611Z,16.91
2016-12-01T03:38:23.291Z,16.91
2016-12-01T03:38:50.991Z,16.92
2016-12-01T03:39:18.662Z,16.89
2016-12-01T03:39:46.320Z,16.97
2016-12-01T03:40:14.103Z,16.95
2016-12-01T03:40:41.784Z,16.95
2016-12-01T03:41:09.436Z,16.94
2016-12-01T03:41:37.140Z,16.92
2016-12-01T03:42:04.834Z,16.98
2016-12-01T03:42:32.501Z,16.98
2016-12-01T03:43:00.199Z,16.98
2016-12-01T03:43:27.898Z,16.95
2016-12-01T03:43:55.587Z,16.94
2016-12-01T03:44:23.269Z,16.92
2016-12-01T03:44:50.963Z,16.97
2016-12-01T03:45:18.736Z,16.95
2016-12-01T03:45:46.560Z,16.98
2016-12-01T03:46:14.274Z,16.98
2016-12-01T03:46:41.987Z,16.99
2016-12-01T03:47:09.664Z,16.97
2016-12-01T03:47:37.361Z,16.99
2016-12-01T03:48:05.014Z,16.98
2016-12-01T03:48:32.694Z,16.91
2016-12-01T03:49:00.382Z,16.97
2016-12-01T03:49:28.088Z,16.97
2016-12-01T03:49:55.767Z,17.01
2016-12-01T03:50:23.551Z,16.97
2016-12-01T03:50:51.220Z,16.97
2016-12-01T03:51:18.916Z,16.97
2016-12-01T03:51:46.602Z,16.87
2016-12-01T03:52:14.304Z,16.98
2016-12-01T03:52:41.994Z,16.92
2016-12-01T03:53:09.677Z,16.87
2016-12-01T03:53:37.357Z,16.92
2016-12-01T03:54:05.034Z,16.94
2016-12-01T03:54:32.791Z,16.86
2016-12-01T03:55:00.476Z,16.92
2016-12-01T03:55:28.279Z,16.89
2016-12-01T03:55:55.974Z,16.92
2016-12-01T03:56:23.634Z,16.89
2016-12-01T03:56:51.350Z,16.89
2016-12-01T03:57:19.040Z,16.87
2016-12-01T03:57:46.740Z,16.97
2016-12-01T03:58:14.424Z,16.94
2016-12-01T03:58:42.143Z,16.97
2016-12-01T03:59:09.847Z,16.97
2016-12-01T03:59:37.538Z,16.98
2016-12-01T04:00:05.207Z,16.92
2016-12-01T04:00:32.907Z,16.92
2016-12-01T04:01:00.590Z,16.94
2016-12-01T04:01:28.367Z,16.86
2016-12-01T04:01:56.095Z,16.89
2016-12-01T04:02:23.784Z,16.89
2016-12-01T04:02:51.477Z,16.89
2016-12-01T04:03:19.249Z,16.86
2016-12-01T04:03:46.963Z,16.86
2016-12-01T04:04:14.711Z,16.83
2016-12-01T04:04:42.405Z,16.87
2016-12-01T04:05:10.169Z,16.86
2016-12-01T04:05:37.868Z,16.91
2016-12-01T04:06:05.572Z,16.82
2016-12-01T04:06:33.226Z,16.83
2016-12-01T04:07:00.907Z,16.83
2016-12-01T04:07:28.669Z,16.89
2016-12-01T04:07:56.380Z,16.87
2016-12-01T04:08:24.054Z,16.86
2016-12-01T04:08:51.717Z,16.87
2016-12-01T04:09:19.443Z,16.91
2016-12-01T04:09:47.142Z,16.91
2016-12-01T04:10:14.816Z,16.83
2016-12-01T04:10:42.514Z,16.84
2016-12-01T04:11:10.177Z,16.86
2016-12-01T04:11:37.869Z,16.92
2016-12-01T04:12:05.615Z,16.83
2016-12-01T04:12:33.294Z,16.92
2016-12-01T04:13:00.986Z,16.87
2016-12-01T04:13:28.879Z,16.91
2016-12-01T04:13:56.566Z,16.95
2016-12-01T04:14:24.249Z,17.01
2016-12-01T04:14:51.930Z,16.97
2016-12-01T04:15:19.608Z,16.99
2016-12-01T04:15:47.427Z,16.95
2016-12-01T04:16:15.115Z,17.01
2016-12-01T04:16:42.834Z,16.99
2016-12-01T04:17:10.549Z,17.01
2016-12-01T04:17:38.246Z,17.04
2016-12-01T04:18:05.981Z,17.04
2016-12-01T04:18:33.675Z,16.99
2016-12-01T04:19:01.393Z,17.01
2016-12-01T04:19:29.118Z,16.99
2016-12-01T04:19:56.801Z,16.99
2016-12-01T04:20:24.488Z,17.04
2016-12-01T04:20:52.161Z,16.99
2016-12-01T04:21:19.883Z,17.05
2016-12-01T04:21:47.565Z,16.98
2016-12-01T04:22:15.232Z,17.05
2016-12-01T04:22:42.989Z,17.01
2016-12-01T04:23:10.664Z,16.91
2016-12-01T04:23:38.370Z,16.97
2016-12-01T04:24:06.050Z,16.97
2016-12-01T04:24:33.741Z,16.94
2016-12-01T04:25:01.438Z,16.99
2016-12-01T04:25:29.130Z,16.98
2016-12-01T04:25:56.809Z,16.98
2016-12-01T04:26:24.488Z,16.97
2016-12-01T04:26:52.175Z,16.91
2016-12-01T04:27:19.993Z,16.97
2016-12-01T04:27:47.695Z,16.94
2016-12-01T04:28:15.401Z,16.92
2016-12-01T04:28:43.086Z,16.98
2016-12-01T04:29:10.781Z,16.92
2016-12-01T04:29:38.497Z,16.94
2016-12-01T04:30:06.178Z,16.94
2016-12-01T04:30:33.878Z,16.87
2016-12-01T04:31:01.561Z,16.95
2016-12-01T04:31:29.243Z,16.97
2016-12-01T04:31:56.921Z,16.94
2016-12-01T04:32:24.632Z,16.91
2016-12-01T04:32:52.343Z,16.92
2016-12-01T04:33:20.055Z,16.95
2016-12-01T04:33:47.740Z,16.89
2016-12-01T04:34:15.417Z,16.89
2016-12-01T04:34:43.133Z,16.83
2016-12-01T04:35:10.887Z,16.92
2016-12-01T04:35:38.583Z,16.91
2016-12-01T04:36:06.269Z,16.82
2016-12-01T04:36:34.053Z,16.91
2016-12-01T04:37:01.753Z,16.84
2016-12-01T04:37:29.456Z,16.89
2016-12-01T04:37:57.171Z,16.84
2016-12-01T04:38:24.863Z,16.83
2016-12-01T04:38:52.530Z,16.84
2016-12-01T04:39:20.244Z,16.79
2016-12-01T04:39:47.960Z,16.91
2016-12-01T04:40:15.653Z,16.87
2016-12-01T04:40:43.345Z,16.79
2016-12-01T04:41:11.033Z,16.82
2016-12-01T04:41:38.774Z,16.84
2016-12-01T04:42:06.456Z,16.86
2016-12-01T04:42:34.147Z,16.77
2016-12-01T04:43:01.848Z,16.8
2016-12-01T04:43:29.540Z,16.82
2016-12-01T04:43:57.236Z,16.84
2016-12-01T04:44:24.938Z,16.79
2016-12-01T04:44:52.651Z,16.87
2016-12-01T04:45:20.429Z,16.86
2016-12-01T04:45:48.102Z,16.83
2016-12-01T04:46:15.789Z,16.86
2016-12-01T04:46:43.527Z,16.86
2016-12-01T04:47:11.208Z,16.83
2016-12-01T04:47:38.908Z,16.8
2016-12-01T04:48:06.628Z,16.82
2016-12-01T04:48:34.343Z,16.86
2016-12-01T04:49:02.038Z,16.79
2016-12-01T04:49:29.763Z,16.83
2016-12-01T04:49:57.579Z,16.79
2016-12-01T04:50:25.258Z,16.82
2016-12-01T04:50:53.043Z,16.82
2016-12-01T04:51:20.769Z,16.83
2016-12-01T04:51:48.450Z,16.82
2016-12-01T04:52:16.139Z,16.8
2016-12-01T04:52:43.892Z,16.77
2016-12-01T04:53:11.588Z,16.82
2016-12-01T04:53:39.269Z,16.84
2016-12-01T04:54:06.968Z,16.8
2016-12-01T04:54:34.662Z,16.86
2016-12-01T04:55:02.382Z,16.8
2016-12-01T04:55:30.068Z,16.77
2016-12-01T04:55:57.762Z,16.77
2016-12-01T04:56:25.457Z,16.76
2016-12-01T04:56:53.165Z,16.87
2016-12-01T04:57:20.861Z,16.87
2016-12-01T04:57:48.511Z,16.84
2016-12-01T04:58:16.229Z,16.86
2016-12-01T04:58:43.917Z,16.84
2016-12-01T04:59:11.707Z,16.84
2016-12-01T04:59:39.395Z,16.87
2016-12-01T05:00:07.143Z,16.86
2016-12-01T05:00:34.861Z,16.86
2016-12-01T05:01:02.567Z,16.94
2016-12-01T05:01:30.246Z,16.95
2016-12-01T05:01:57.913Z,16.94
2016-12-01T05:02:25.602Z,16.92
2016-12-01T05:02:53.291Z,16.92
2016-12-01T05:03:21.088Z,16.89
2016-12-01T05:03:48.873Z,16.83
2016-12-01T05:04:16.596Z,16.84
2016-12-01T05:04:44.288Z,16.91
2016-12-01T05:05:11.972Z,16.87
2016-12-01T05:05:39.770Z,16.91
2016-12-01T05:06:07.461Z,16.92
2016-12-01T05:06:35.167Z,16.91
2016-12-01T05:07:02.868Z,16.89
2016-12-01T05:07:30.536Z,16.84
2016-12-01T05:07:58.227Z,16.89
2016-12-01T05:08:25.904Z,16.87
2016-12-01T05:08:53.574Z,16.91
2016-12-01T05:09:21.261Z,16.82
2016-12-01T05:09:48.937Z,16.84
2016-12-01T05:10:16.634Z,16.83
2016-12-01T05:10:44.322Z,16.86
2016-12-01T05:11:12.016Z,16.84
2016-12-01T05:11:39.701Z,16.8
2016-12-01T05:12:07.361Z,16.89
2016-12-01T05:12:35.057Z,16.86
2016-12-01T05:13:02.749Z,16.87
2016-12-01T05:13:30.549Z,16.84
2016-12-01T05:13:58.335Z,16.86
2016-12-01T05:14:26.011Z,16.84
2016-12-01T05:14:53.668Z,16.84
2016-12-01T05:15:21.335Z,16.87
2016-12-01T05:15:49.140Z,16.86
2016-12-01T05:16:17.016Z,16.86
2016-12-01T05:16:44.718Z,16.82
2016-12-01T05:17:12.413Z,16.82
2016-12-01T05:17:40.178Z,16.86
2016-12-01T05:18:07.876Z,16.87
2016-12-01T05:18:35.674Z,16.86
2016-12-01T05:19:03.377Z,16.86
2016-12-01T05:19:31.039Z,16.79
2016-12-01T05:19:58.732Z,16.82
2016-12-01T05:20:26.444Z,16.8
2016-12-01T05:20:54.102Z,16.84
2016-12-01T05:21:21.789Z,16.84
2016-12-01T05:21:49.484Z,16.84
2016-12-01T05:22:17.170Z,16.82
2016-12-01T05:22:44.881Z,16.82
2016-12-01T05:23:12.570Z,16.83
2016-12-01T05:23:40.241Z,16.86
2016-12-01T05:24:07.923Z,16.82
2016-12-01T05:24:35.616Z,16.87
2016-12-01T05:25:03.305Z,16.84
2016-12-01T05:25:30.982Z,16.92
2016-12-01T05:25:58.697Z,16.92
2016-12-01T05:26:26.425Z,16.87
2016-12-01T05:26:54.110Z,16.95
2016-12-01T05:27:21.793Z,16.95
2016-12-01T05:27:49.518Z,16.99
2016-12-01T05:28:17.227Z,17.04
2016-12-01T05:28:44.934Z,17.01
2016-12-01T05:29:12.621Z,17.04
2016-12-01T05:29:40.386Z,16.99
2016-12-01T05:30:08.161Z,17.04
2016-12-01T05:30:35.951Z,16.99
2016-12-01T05:31:03.639Z,17.01
2016-12-01T05:31:31.324Z,16.95
2016-12-01T05:31:58.994Z,16.95
2016-12-01T05:32:26.845Z,16.98
2016-12-01T05:32:54.551Z,16.98
2016-12-01T05:33:22.346Z,17.01
2016-12-01T05:33:50.045Z,17.04
2016-12-01T05:34:17.728Z,16.98
2016-12-01T05:34:45.432Z,17.04
2016-12-01T05:35:13.204Z,16.98
2016-12-01T05:35:40.994Z,17.05
2016-12-01T05:36:08.664Z,17.04
2016-12-01T05:36:36.362Z,17.07
2016-12-01T05:37:04.067Z,16.99
2016-12-01T05:37:31.762Z,17.01
2016-12-01T05:37:59.444Z,17.09
2016-12-01T05:38:27.260Z,17.13
2016-12-01T05:38:55.030Z,17.12
2016-12-01T05:39:22.796Z,17.14
2016-12-01T05:39:50.509Z,16.99
2016-12-01T05:40:18.192Z,17.01
2016-12-01T05:40:45.889Z,17.04
2016-12-01T05:41:13.676Z,17.07
2016-12-01T05:41:41.362Z,16.98
2016-12-01T05:42:09.017Z,16.99
2016-12-01T05:42:36.711Z,17.02
2016-12-01T05:43:04.405Z,16.94
2016-12-01T05:43:32.107Z,16.92
2016-12-01T05:43:59.817Z,16.89
2016-12-01T05:44:27.526Z,16.89
2016-12-01T05:44:55.227Z,16.95
2016-12-01T05:45:23.003Z,16.94
2016-12-01T05:45:50.696Z,16.98
2016-12-01T05:46:18.364Z,16.92
2016-12-01T05:46:46.059Z,17.07
2016-12-01T05:47:13.731Z,16.99
2016-12-01T05:47:41.442Z,17.05
2016-12-01T05:48:09.202Z,17.04
2016-12-01T05:48:36.893Z,17.07
2016-12-01T05:49:04.707Z,17.01
2016-12-01T05:49:32.434Z,16.99
2016-12-01T05:50:00.130Z,16.98
2016-12-01T05:50:27.812Z,16.99
2016-12-01T05:50:55.518Z,16.95
2016-12-01T05:51:23.246Z,16.95
2016-12-01T05:51:51.132Z,16.94
2016-12-01T05:52:18.834Z,16.92
2016-12-01T05:52:46.500Z,16.91
2016-12-01T05:53:14.170Z,16.92
2016-12-01T05:53:41.892Z,16.89
2016-12-01T05:54:09.593Z,16.87
2016-12-01T05:54:37.346Z,16.87
2016-12-01T05:55:05.021Z,16.94
2016-12-01T05:55:32.754Z,16.94
2016-12-01T05:56:00.432Z,16.95
2016-12-01T05:56:28.141Z,16.94
2016-12-01T05:56:55.840Z,16.92
2016-12-01T05:57:23.548Z,16.95